sensor_id;sensor_type;location;lat;lon;timestamp;pressure;altitude;pressure_sealevel;temperature;humidity
5679;BME280;2862;52.560;13.566;2023-07-13T00:07:18;100431.13;;;21.00;56.99
5679;BME280;2862;52.560;13.566;2023-07-13T00:17:23;100429.16;;;20.87;57.37
5679;BME280;2862;52.560;13.566;2023-07-13T00:27:26;100438.56;;;20.78;57.02
5679;BME280;2862;52.560;13.566;2023-07-13T00:37:30;100441.41;;;20.69;56.88
5679;BME280;2862;52.560;13.566;2023-07-13T00:47:34;100441.16;;;20.58;57.94
5679;BME280;2862;52.560;13.566;2023-07-13T00:57:38;100449.28;;;20.58;58.14
5679;BME280;2862;52.560;13.566;2023-07-13T01:07:43;100435.81;;;20.43;58.77
5679;BME280;2862;52.560;13.566;2023-07-13T01:17:48;100440.56;;;20.34;58.97
5679;BME280;2862;52.560;13.566;2023-07-13T01:27:53;100451.78;;;20.25;59.48
5679;BME280;2862;52.560;13.566;2023-07-13T01:37:55;100441.31;;;20.22;59.73
5679;BME280;2862;52.560;13.566;2023-07-13T01:48:00;100440.06;;;19.96;60.74
5679;BME280;2862;52.560;13.566;2023-07-13T01:58:04;100434.56;;;19.89;61.83
5679;BME280;2862;52.560;13.566;2023-07-13T02:08:08;100435.44;;;19.90;61.39
5679;BME280;2862;52.560;13.566;2023-07-13T02:18:12;100431.38;;;19.79;62.64
5679;BME280;2862;52.560;13.566;2023-07-13T02:28:20;100431.47;;;19.71;62.64
5679;BME280;2862;52.560;13.566;2023-07-13T02:38:23;100428.13;;;19.69;62.27
5679;BME280;2862;52.560;13.566;2023-07-13T02:48:28;100435.81;;;19.66;62.36
5679;BME280;2862;52.560;13.566;2023-07-13T02:58:32;100433.50;;;19.62;62.34
5679;BME280;2862;52.560;13.566;2023-07-13T03:08:41;100452.75;;;19.68;63.44
5679;BME280;2862;52.560;13.566;2023-07-13T03:18:43;100458.66;;;19.78;63.23
5679;BME280;2862;52.560;13.566;2023-07-13T03:28:48;100465.69;;;19.72;64.44
5679;BME280;2862;52.560;13.566;2023-07-13T03:38:57;100479.56;;;20.27;62.36
5679;BME280;2862;52.560;13.566;2023-07-13T03:49:09;100478.38;;;23.89;50.60
5679;BME280;2862;52.560;13.566;2023-07-13T03:59:12;100464.00;;;26.37;44.25
5679;BME280;2862;52.560;13.566;2023-07-13T04:09:17;100480.28;;;28.83;39.55
5679;BME280;2862;52.560;13.566;2023-07-13T04:19:21;100476.94;;;31.18;33.68
5679;BME280;2862;52.560;13.566;2023-07-13T04:29:25;100485.13;;;33.58;31.01
5679;BME280;2862;52.560;13.566;2023-07-13T04:39:28;100494.09;;;35.10;28.44
5679;BME280;2862;52.560;13.566;2023-07-13T04:49:32;100499.97;;;36.08;26.28
5679;BME280;2862;52.560;13.566;2023-07-13T04:59:35;100518.47;;;37.24;24.60
5679;BME280;2862;52.560;13.566;2023-07-13T05:09:40;100520.31;;;37.42;23.93
5679;BME280;2862;52.560;13.566;2023-07-13T05:19:44;100525.63;;;39.01;22.43
5679;BME280;2862;52.560;13.566;2023-07-13T05:29:48;100536.94;;;41.21;20.19
5679;BME280;2862;52.560;13.566;2023-07-13T05:39:51;100532.53;;;42.46;18.78
5679;BME280;2862;52.560;13.566;2023-07-13T05:49:55;100533.44;;;42.71;18.35
5679;BME280;2862;52.560;13.566;2023-07-13T05:59:58;100543.63;;;43.73;17.58
5679;BME280;2862;52.560;13.566;2023-07-13T06:10:13;100547.66;;;44.12;16.39
5679;BME280;2862;52.560;13.566;2023-07-13T06:20:17;100537.84;;;41.63;18.49
5679;BME280;2862;52.560;13.566;2023-07-13T06:30:21;100547.50;;;36.63;24.40
5679;BME280;2862;52.560;13.566;2023-07-13T06:40:24;100536.47;;;36.39;24.44
5679;BME280;2862;52.560;13.566;2023-07-13T06:50:28;100539.56;;;37.80;22.92
5679;BME280;2862;52.560;13.566;2023-07-13T07:00:32;100548.75;;;38.84;21.70
5679;BME280;2862;52.560;13.566;2023-07-13T07:10:37;100533.81;;;39.37;21.32
5679;BME280;2862;52.560;13.566;2023-07-13T07:20:40;100540.78;;;39.09;20.97
5679;BME280;2862;52.560;13.566;2023-07-13T07:30:44;100552.59;;;38.97;20.73
5679;BME280;2862;52.560;13.566;2023-07-13T07:40:50;100543.59;;;37.88;21.17
5679;BME280;2862;52.560;13.566;2023-07-13T07:50:57;100557.66;;;33.80;25.62
5679;BME280;2862;52.560;13.566;2023-07-13T08:01:04;100547.19;;;32.82;27.90
5679;BME280;2862;52.560;13.566;2023-07-13T08:11:11;100565.47;;;29.51;31.33
5679;BME280;2862;52.560;13.566;2023-07-13T08:21:17;100557.69;;;28.70;33.63
5679;BME280;2862;52.560;13.566;2023-07-13T08:31:23;100568.97;;;28.35;34.00
5679;BME280;2862;52.560;13.566;2023-07-13T08:41:26;100568.47;;;27.41;36.27
5679;BME280;2862;52.560;13.566;2023-07-13T08:51:36;100575.81;;;28.21;34.55
5679;BME280;2862;52.560;13.566;2023-07-13T09:02:10;100586.72;;;27.70;36.14
5679;BME280;2862;52.560;13.566;2023-07-13T09:12:26;100585.06;;;26.52;37.16
5679;BME280;2862;52.560;13.566;2023-07-13T09:22:35;100577.53;;;28.89;34.06
5679;BME280;2862;52.560;13.566;2023-07-13T09:32:43;100572.81;;;28.68;33.65
5679;BME280;2862;52.560;13.566;2023-07-13T09:42:47;100575.50;;;29.40;31.33
5679;BME280;2862;52.560;13.566;2023-07-13T09:52:51;100576.69;;;29.44;32.34
5679;BME280;2862;52.560;13.566;2023-07-13T10:03:02;100578.91;;;29.91;30.93
5679;BME280;2862;52.560;13.566;2023-07-13T10:13:27;100585.69;;;29.18;29.26
5679;BME280;2862;52.560;13.566;2023-07-13T10:23:32;100571.44;;;28.87;30.69
5679;BME280;2862;52.560;13.566;2023-07-13T10:33:37;100572.88;;;28.73;30.61
5679;BME280;2862;52.560;13.566;2023-07-13T10:43:43;100576.00;;;27.86;30.74
5679;BME280;2862;52.560;13.566;2023-07-13T10:54:12;100574.84;;;27.98;31.64
5679;BME280;2862;52.560;13.566;2023-07-13T11:04:20;100568.84;;;28.30;31.93
5679;BME280;2862;52.560;13.566;2023-07-13T11:14:29;100566.81;;;28.09;30.35
5679;BME280;2862;52.560;13.566;2023-07-13T11:24:49;100565.69;;;27.64;32.54
5679;BME280;2862;52.560;13.566;2023-07-13T11:34:54;100552.34;;;27.85;32.93
5679;BME280;2862;52.560;13.566;2023-07-13T11:44:57;100553.81;;;27.75;31.40
5679;BME280;2862;52.560;13.566;2023-07-13T11:55:15;100546.44;;;27.64;31.05
5679;BME280;2862;52.560;13.566;2023-07-13T12:05:19;100556.59;;;27.12;31.81
5679;BME280;2862;52.560;13.566;2023-07-13T12:15:30;100554.03;;;27.34;30.83
5679;BME280;2862;52.560;13.566;2023-07-13T12:25:37;100545.63;;;27.52;30.24
5679;BME280;2862;52.560;13.566;2023-07-13T12:35:44;100552.31;;;27.56;29.92
5679;BME280;2862;52.560;13.566;2023-07-13T12:45:56;100558.84;;;27.78;30.25
5679;BME280;2862;52.560;13.566;2023-07-13T12:56:03;100551.66;;;28.06;30.81
5679;BME280;2862;52.560;13.566;2023-07-13T13:06:17;100549.44;;;27.91;28.75
5679;BME280;2862;52.560;13.566;2023-07-13T13:16:30;100549.94;;;27.88;29.04
5679;BME280;2862;52.560;13.566;2023-07-13T13:26:34;100547.59;;;27.80;28.55
5679;BME280;2862;52.560;13.566;2023-07-13T13:36:39;100559.50;;;27.45;29.23
5679;BME280;2862;52.560;13.566;2023-07-13T13:46:43;100556.91;;;27.79;29.43
5679;BME280;2862;52.560;13.566;2023-07-13T13:56:50;100559.91;;;27.77;29.98
5679;BME280;2862;52.560;13.566;2023-07-13T14:06:53;100554.69;;;27.76;30.12
5679;BME280;2862;52.560;13.566;2023-07-13T14:16:57;100549.66;;;27.61;30.58
5679;BME280;2862;52.560;13.566;2023-07-13T14:27:00;100560.19;;;27.52;30.39
5679;BME280;2862;52.560;13.566;2023-07-13T14:37:05;100558.72;;;28.02;30.26
5679;BME280;2862;52.560;13.566;2023-07-13T14:47:08;100560.28;;;27.98;30.20
5679;BME280;2862;52.560;13.566;2023-07-13T14:57:16;100557.16;;;28.06;30.58
5679;BME280;2862;52.560;13.566;2023-07-13T15:07:20;100558.09;;;27.83;30.07
5679;BME280;2862;52.560;13.566;2023-07-13T15:17:27;100556.75;;;27.45;29.95
5679;BME280;2862;52.560;13.566;2023-07-13T15:27:33;100542.75;;;26.83;30.58
5679;BME280;2862;52.560;13.566;2023-07-13T15:37:40;100544.63;;;26.94;29.30
5679;BME280;2862;52.560;13.566;2023-07-13T15:47:43;100545.47;;;26.83;28.57
5679;BME280;2862;52.560;13.566;2023-07-13T15:57:49;100543.34;;;27.20;30.43
5679;BME280;2862;52.560;13.566;2023-07-13T16:07:53;100554.66;;;27.36;30.43
5679;BME280;2862;52.560;13.566;2023-07-13T16:17:59;100548.56;;;27.34;30.48
5679;BME280;2862;52.560;13.566;2023-07-13T16:28:02;100548.44;;;27.29;30.83
5679;BME280;2862;52.560;13.566;2023-07-13T16:38:14;100558.03;;;26.79;30.60
5679;BME280;2862;52.560;13.566;2023-07-13T16:48:19;100580.66;;;26.09;31.96
5679;BME280;2862;52.560;13.566;2023-07-13T16:58:26;100594.13;;;26.11;33.11
5679;BME280;2862;52.560;13.566;2023-07-13T17:08:31;100606.38;;;26.08;32.25
5679;BME280;2862;52.560;13.566;2023-07-13T17:18:36;100665.03;;;25.09;40.38
5679;BME280;2862;52.560;13.566;2023-07-13T17:28:40;100713.41;;;22.28;54.85
5679;BME280;2862;52.560;13.566;2023-07-13T17:38:47;100731.41;;;21.46;57.76
5679;BME280;2862;52.560;13.566;2023-07-13T17:48:52;100769.91;;;21.50;57.58
5679;BME280;2862;52.560;13.566;2023-07-13T17:58:56;100761.88;;;21.63;57.43
5679;BME280;2862;52.560;13.566;2023-07-13T18:09:02;100759.72;;;21.31;59.20
5679;BME280;2862;52.560;13.566;2023-07-13T18:19:28;100765.19;;;21.59;58.98
5679;BME280;2862;52.560;13.566;2023-07-13T18:29:32;100752.41;;;21.31;58.87
5679;BME280;2862;52.560;13.566;2023-07-13T18:39:37;100732.63;;;21.44;60.04
5679;BME280;2862;52.560;13.566;2023-07-13T18:49:43;100752.81;;;21.91;58.85
5679;BME280;2862;52.560;13.566;2023-07-13T18:59:50;100765.81;;;21.95;59.20
5679;BME280;2862;52.560;13.566;2023-07-13T19:09:53;100769.38;;;21.96;58.53
5679;BME280;2862;52.560;13.566;2023-07-13T19:19:59;100770.03;;;21.63;59.26
5679;BME280;2862;52.560;13.566;2023-07-13T19:30:03;100791.53;;;21.30;60.58
5679;BME280;2862;52.560;13.566;2023-07-13T19:40:19;100806.94;;;21.23;62.31
5679;BME280;2862;52.560;13.566;2023-07-13T19:50:26;100828.38;;;21.33;60.92
5679;BME280;2862;52.560;13.566;2023-07-13T20:00:30;100844.34;;;21.00;62.39
5679;BME280;2862;52.560;13.566;2023-07-13T20:10:33;100850.66;;;20.85;63.66
5679;BME280;2862;52.560;13.566;2023-07-13T20:20:40;100847.78;;;20.72;63.35
5679;BME280;2862;52.560;13.566;2023-07-13T20:30:50;100872.13;;;20.80;63.86
5679;BME280;2862;52.560;13.566;2023-07-13T20:40:55;100882.16;;;20.80;62.25
5679;BME280;2862;52.560;13.566;2023-07-13T20:50:59;100879.72;;;20.85;61.50
5679;BME280;2862;52.560;13.566;2023-07-13T21:01:09;100888.34;;;20.88;61.81
5679;BME280;2862;52.560;13.566;2023-07-13T21:11:18;100897.63;;;20.79;62.01
5679;BME280;2862;52.560;13.566;2023-07-13T21:21:24;100905.72;;;20.58;62.39
5679;BME280;2862;52.560;13.566;2023-07-13T21:31:29;100908.34;;;20.51;62.30
5679;BME280;2862;52.560;13.566;2023-07-13T21:41:36;100905.59;;;20.22;63.25
5679;BME280;2862;52.560;13.566;2023-07-13T21:51:39;100905.00;;;20.11;63.51
5679;BME280;2862;52.560;13.566;2023-07-13T22:01:44;100904.19;;;20.11;63.65
5679;BME280;2862;52.560;13.566;2023-07-13T22:11:47;100907.72;;;20.11;64.00
5679;BME280;2862;52.560;13.566;2023-07-13T22:21:52;100908.56;;;19.97;63.79
5679;BME280;2862;52.560;13.566;2023-07-13T22:31:56;100899.84;;;19.87;63.79
5679;BME280;2862;52.560;13.566;2023-07-13T22:42:00;100899.19;;;20.00;63.31
5679;BME280;2862;52.560;13.566;2023-07-13T22:52:09;100896.41;;;20.08;63.39
5679;BME280;2862;52.560;13.566;2023-07-13T23:02:16;100888.28;;;20.08;62.80
5679;BME280;2862;52.560;13.566;2023-07-13T23:12:20;100901.66;;;20.09;63.03
5679;BME280;2862;52.560;13.566;2023-07-13T23:22:26;100909.41;;;19.98;62.74
5679;BME280;2862;52.560;13.566;2023-07-13T23:32:29;100914.69;;;19.76;62.62
5679;BME280;2862;52.560;13.566;2023-07-13T23:42:33;100925.53;;;19.76;62.72
5679;BME280;2862;52.560;13.566;2023-07-13T23:52:36;100927.78;;;19.73;62.67
